Terminal Aerodrome Forecast
Issued by NWS

Home | Current Version | Previous Version | Text Only | Print | Product List | Glossary On
Versions: 1 2 3 4 5 6 7 8 9 10 11 12
000
FTUS42 KTBW 041720
TAFPIE
TAF
KPIE 041720Z 0418/0518 08009KT P6SM BKN250
     FM050100 08012G18KT P6SM SCT250
     FM050500 07012KT P6SM SCT250
     FM051400 07014KT P6SM SCT050 BKN250=

USA.gov is the U.S. government's official web portal to all federal, state and local government web resources and services.